Bunch, Oklahoma
Current Conditions -  °F | °C
As of 8:55 AM on Monday 24 Nov 2014 (Local Time) from KJSV Reporting Station
Clear Clear  
Wind Chill:   Ceiling: Unl
Heat Index:   Visibility: 10mi
Dew Point:   Wind: 8mph
Humidity: 61%   Direction: 280°W
Pressure: 29.92"   Gusts: NA
Location:  35.68°N, 94.76°W
Report Text: KJSV 241455Z AUTO 28007KT 10SM CLR 07/00 A2992 RMK AO2
Loading
Personal Weather Stations






























Interactive Weather Map New forecast layout! Learn more

10-Day Weather Forecast

Advertisements
Track Severe Weather on mobile